sensor_id;sensor_type;location;lat;lon;timestamp;P1;durP1;ratioP1;P2;durP2;ratioP2
26686;SDS011;14298;50.900;4.648;2022-07-29T00:00:18;3.13;;;1.57;;
26686;SDS011;14298;50.900;4.648;2022-07-29T00:02:46;8.53;;;2.00;;
26686;SDS011;14298;50.900;4.648;2022-07-29T00:05:14;5.97;;;1.80;;
26686;SDS011;14298;50.900;4.648;2022-07-29T00:07:43;3.17;;;1.93;;
26686;SDS011;14298;50.900;4.648;2022-07-29T00:10:11;7.10;;;1.60;;
26686;SDS011;14298;50.900;4.648;2022-07-29T00:12:40;4.57;;;1.83;;
26686;SDS011;14298;50.900;4.648;2022-07-29T00:15:08;2.57;;;1.70;;
26686;SDS011;14298;50.900;4.648;2022-07-29T00:17:37;2.83;;;1.67;;
26686;SDS011;14298;50.900;4.648;2022-07-29T00:20:05;5.03;;;2.13;;
26686;SDS011;14298;50.900;4.648;2022-07-29T00:22:36;5.60;;;1.90;;
26686;SDS011;14298;50.900;4.648;2022-07-29T00:25:05;4.87;;;1.90;;
26686;SDS011;14298;50.900;4.648;2022-07-29T00:27:35;2.43;;;1.87;;
26686;SDS011;14298;50.900;4.648;2022-07-29T00:30:04;3.10;;;1.93;;
26686;SDS011;14298;50.900;4.648;2022-07-29T00:32:34;6.43;;;1.80;;
26686;SDS011;14298;50.900;4.648;2022-07-29T00:35:02;2.93;;;1.60;;
26686;SDS011;14298;50.900;4.648;2022-07-29T00:37:49;1.93;;;1.63;;
26686;SDS011;14298;50.900;4.648;2022-07-29T00:40:17;3.63;;;1.80;;
26686;SDS011;14298;50.900;4.648;2022-07-29T00:42:46;3.00;;;1.90;;
26686;SDS011;14298;50.900;4.648;2022-07-29T00:45:16;3.47;;;1.70;;
26686;SDS011;14298;50.900;4.648;2022-07-29T00:47:45;3.83;;;2.00;;
26686;SDS011;14298;50.900;4.648;2022-07-29T00:50:14;6.37;;;2.43;;
26686;SDS011;14298;50.900;4.648;2022-07-29T00:52:42;6.33;;;2.43;;
26686;SDS011;14298;50.900;4.648;2022-07-29T00:55:12;5.27;;;2.00;;
26686;SDS011;14298;50.900;4.648;2022-07-29T00:57:42;5.77;;;2.40;;
26686;SDS011;14298;50.900;4.648;2022-07-29T01:00:13;6.40;;;2.20;;
26686;SDS011;14298;50.900;4.648;2022-07-29T01:02:44;3.97;;;1.87;;
26686;SDS011;14298;50.900;4.648;2022-07-29T01:05:16;3.87;;;2.10;;
26686;SDS011;14298;50.900;4.648;2022-07-29T01:07:46;4.27;;;2.30;;
26686;SDS011;14298;50.900;4.648;2022-07-29T01:10:16;4.17;;;2.10;;
26686;SDS011;14298;50.900;4.648;2022-07-29T01:12:48;5.27;;;2.20;;
26686;SDS011;14298;50.900;4.648;2022-07-29T01:15:18;3.70;;;2.23;;
26686;SDS011;14298;50.900;4.648;2022-07-29T01:17:50;6.07;;;2.27;;
26686;SDS011;14298;50.900;4.648;2022-07-29T01:34:27;5.33;;;2.20;;
26686;SDS011;14298;50.900;4.648;2022-07-29T01:37:12;4.27;;;2.10;;
26686;SDS011;14298;50.900;4.648;2022-07-29T01:39:49;3.13;;;2.30;;
26686;SDS011;14298;50.900;4.648;2022-07-29T01:42:36;7.17;;;2.37;;
26686;SDS011;14298;50.900;4.648;2022-07-29T01:45:12;9.73;;;2.53;;
26686;SDS011;14298;50.900;4.648;2022-07-29T01:47:43;5.50;;;2.50;;
26686;SDS011;14298;50.900;4.648;2022-07-29T01:50:19;4.67;;;2.40;;
26686;SDS011;14298;50.900;4.648;2022-07-29T01:52:52;5.97;;;2.73;;
26686;SDS011;14298;50.900;4.648;2022-07-29T01:55:36;6.73;;;2.20;;
26686;SDS011;14298;50.900;4.648;2022-07-29T01:58:03;6.60;;;3.07;;
26686;SDS011;14298;50.900;4.648;2022-07-29T02:00:33;6.40;;;2.87;;
26686;SDS011;14298;50.900;4.648;2022-07-29T02:03:04;4.30;;;2.57;;
26686;SDS011;14298;50.900;4.648;2022-07-29T02:05:35;4.17;;;2.50;;
26686;SDS011;14298;50.900;4.648;2022-07-29T02:08:05;4.07;;;2.40;;
26686;SDS011;14298;50.900;4.648;2022-07-29T02:10:34;5.90;;;2.40;;
26686;SDS011;14298;50.900;4.648;2022-07-29T02:13:05;3.33;;;2.33;;
26686;SDS011;14298;50.900;4.648;2022-07-29T02:15:36;6.77;;;2.73;;
26686;SDS011;14298;50.900;4.648;2022-07-29T02:18:12;4.23;;;2.53;;
26686;SDS011;14298;50.900;4.648;2022-07-29T02:20:48;6.40;;;2.53;;
26686;SDS011;14298;50.900;4.648;2022-07-29T02:23:19;7.57;;;3.63;;
26686;SDS011;14298;50.900;4.648;2022-07-29T02:25:50;5.77;;;2.40;;
26686;SDS011;14298;50.900;4.648;2022-07-29T02:28:21;5.47;;;2.43;;
26686;SDS011;14298;50.900;4.648;2022-07-29T02:30:52;3.70;;;2.70;;
26686;SDS011;14298;50.900;4.648;2022-07-29T02:33:23;5.17;;;2.40;;
26686;SDS011;14298;50.900;4.648;2022-07-29T02:35:52;5.60;;;2.93;;
26686;SDS011;14298;50.900;4.648;2022-07-29T02:38:22;4.33;;;2.50;;
26686;SDS011;14298;50.900;4.648;2022-07-29T02:41:12;4.13;;;2.17;;
26686;SDS011;14298;50.900;4.648;2022-07-29T02:43:43;5.10;;;2.43;;
26686;SDS011;14298;50.900;4.648;2022-07-29T02:46:14;7.73;;;2.90;;
26686;SDS011;14298;50.900;4.648;2022-07-29T02:48:51;4.63;;;2.60;;
26686;SDS011;14298;50.900;4.648;2022-07-29T02:51:27;5.50;;;2.53;;
26686;SDS011;14298;50.900;4.648;2022-07-29T02:53:57;4.80;;;2.43;;
26686;SDS011;14298;50.900;4.648;2022-07-29T02:56:27;3.10;;;2.60;;
26686;SDS011;14298;50.900;4.648;2022-07-29T02:59:03;2.90;;;2.60;;
26686;SDS011;14298;50.900;4.648;2022-07-29T03:01:32;4.33;;;3.00;;
26686;SDS011;14298;50.900;4.648;2022-07-29T03:04:03;4.17;;;2.80;;
26686;SDS011;14298;50.900;4.648;2022-07-29T03:06:32;5.53;;;2.73;;
26686;SDS011;14298;50.900;4.648;2022-07-29T03:09:02;5.03;;;2.80;;
26686;SDS011;14298;50.900;4.648;2022-07-29T03:11:31;8.73;;;2.77;;
26686;SDS011;14298;50.900;4.648;2022-07-29T03:14:00;9.43;;;2.90;;
26686;SDS011;14298;50.900;4.648;2022-07-29T03:16:30;3.57;;;2.47;;
26686;SDS011;14298;50.900;4.648;2022-07-29T03:18:59;4.73;;;2.87;;
26686;SDS011;14298;50.900;4.648;2022-07-29T03:21:29;5.10;;;2.40;;
26686;SDS011;14298;50.900;4.648;2022-07-29T03:23:58;7.90;;;2.37;;
26686;SDS011;14298;50.900;4.648;2022-07-29T03:26:26;4.37;;;2.40;;
26686;SDS011;14298;50.900;4.648;2022-07-29T03:28:55;6.33;;;2.77;;
26686;SDS011;14298;50.900;4.648;2022-07-29T03:31:23;2.80;;;2.50;;
26686;SDS011;14298;50.900;4.648;2022-07-29T03:33:52;4.13;;;2.57;;
26686;SDS011;14298;50.900;4.648;2022-07-29T03:36:20;7.03;;;2.97;;
26686;SDS011;14298;50.900;4.648;2022-07-29T03:38:48;7.63;;;3.23;;
26686;SDS011;14298;50.900;4.648;2022-07-29T03:41:17;6.43;;;2.67;;
26686;SDS011;14298;50.900;4.648;2022-07-29T03:43:47;6.80;;;2.70;;
26686;SDS011;14298;50.900;4.648;2022-07-29T03:46:20;6.23;;;2.37;;
26686;SDS011;14298;50.900;4.648;2022-07-29T03:48:50;7.37;;;2.90;;
26686;SDS011;14298;50.900;4.648;2022-07-29T03:51:21;5.93;;;3.50;;
26686;SDS011;14298;50.900;4.648;2022-07-29T03:53:49;8.10;;;3.40;;
26686;SDS011;14298;50.900;4.648;2022-07-29T03:56:19;6.03;;;3.00;;
26686;SDS011;14298;50.900;4.648;2022-07-29T03:58:52;7.17;;;2.87;;
26686;SDS011;14298;50.900;4.648;2022-07-29T04:01:22;12.97;;;2.70;;
26686;SDS011;14298;50.900;4.648;2022-07-29T04:03:51;13.13;;;3.00;;
26686;SDS011;14298;50.900;4.648;2022-07-29T04:06:19;4.20;;;2.47;;
26686;SDS011;14298;50.900;4.648;2022-07-29T04:08:47;4.10;;;2.50;;
26686;SDS011;14298;50.900;4.648;2022-07-29T04:11:16;7.00;;;2.80;;
26686;SDS011;14298;50.900;4.648;2022-07-29T04:13:44;8.60;;;2.63;;
26686;SDS011;14298;50.900;4.648;2022-07-29T04:16:13;3.73;;;2.53;;
26686;SDS011;14298;50.900;4.648;2022-07-29T04:18:41;6.33;;;3.07;;
26686;SDS011;14298;50.900;4.648;2022-07-29T04:21:09;6.87;;;2.73;;
26686;SDS011;14298;50.900;4.648;2022-07-29T04:23:38;20.23;;;3.70;;
26686;SDS011;14298;50.900;4.648;2022-07-29T04:26:07;4.17;;;2.50;;
26686;SDS011;14298;50.900;4.648;2022-07-29T04:28:37;7.00;;;2.60;;
26686;SDS011;14298;50.900;4.648;2022-07-29T04:31:06;5.07;;;2.80;;
26686;SDS011;14298;50.900;4.648;2022-07-29T04:33:34;12.37;;;3.07;;
26686;SDS011;14298;50.900;4.648;2022-07-29T04:36:03;7.13;;;2.73;;
26686;SDS011;14298;50.900;4.648;2022-07-29T04:38:31;16.43;;;3.40;;
26686;SDS011;14298;50.900;4.648;2022-07-29T04:41:00;4.57;;;2.70;;
26686;SDS011;14298;50.900;4.648;2022-07-29T04:43:28;17.57;;;3.20;;
26686;SDS011;14298;50.900;4.648;2022-07-29T04:45:57;12.00;;;2.63;;
26686;SDS011;14298;50.900;4.648;2022-07-29T04:48:26;5.33;;;2.63;;
26686;SDS011;14298;50.900;4.648;2022-07-29T04:50:57;10.53;;;3.00;;
26686;SDS011;14298;50.900;4.648;2022-07-29T04:53:25;15.47;;;3.47;;
26686;SDS011;14298;50.900;4.648;2022-07-29T04:55:54;6.43;;;2.90;;
26686;SDS011;14298;50.900;4.648;2022-07-29T04:58:22;12.07;;;3.63;;
26686;SDS011;14298;50.900;4.648;2022-07-29T05:00:51;5.20;;;3.23;;
26686;SDS011;14298;50.900;4.648;2022-07-29T05:03:19;3.63;;;2.90;;
26686;SDS011;14298;50.900;4.648;2022-07-29T05:05:48;7.77;;;3.00;;
26686;SDS011;14298;50.900;4.648;2022-07-29T05:08:16;4.23;;;2.63;;
26686;SDS011;14298;50.900;4.648;2022-07-29T05:10:50;8.30;;;2.77;;
26686;SDS011;14298;50.900;4.648;2022-07-29T05:13:14;8.90;;;2.93;;
26686;SDS011;14298;50.900;4.648;2022-07-29T05:15:43;5.73;;;3.00;;
26686;SDS011;14298;50.900;4.648;2022-07-29T05:18:11;8.73;;;2.80;;
26686;SDS011;14298;50.900;4.648;2022-07-29T05:20:40;10.27;;;3.10;;
26686;SDS011;14298;50.900;4.648;2022-07-29T05:23:08;10.80;;;3.00;;
26686;SDS011;14298;50.900;4.648;2022-07-29T05:25:38;9.63;;;3.50;;
26686;SDS011;14298;50.900;4.648;2022-07-29T05:28:07;17.33;;;3.27;;
26686;SDS011;14298;50.900;4.648;2022-07-29T05:30:35;3.47;;;2.60;;
26686;SDS011;14298;50.900;4.648;2022-07-29T05:33:04;11.33;;;3.10;;
26686;SDS011;14298;50.900;4.648;2022-07-29T05:35:32;6.37;;;3.07;;
26686;SDS011;14298;50.900;4.648;2022-07-29T05:38:01;5.97;;;3.03;;
26686;SDS011;14298;50.900;4.648;2022-07-29T05:40:30;5.33;;;3.37;;
26686;SDS011;14298;50.900;4.648;2022-07-29T05:42:59;4.73;;;3.10;;
26686;SDS011;14298;50.900;4.648;2022-07-29T05:45:27;5.97;;;3.50;;
26686;SDS011;14298;50.900;4.648;2022-07-29T05:47:55;7.20;;;3.03;;
26686;SDS011;14298;50.900;4.648;2022-07-29T05:50:23;4.90;;;3.30;;
26686;SDS011;14298;50.900;4.648;2022-07-29T05:52:52;16.37;;;3.50;;
26686;SDS011;14298;50.900;4.648;2022-07-29T05:55:20;4.83;;;3.17;;
26686;SDS011;14298;50.900;4.648;2022-07-29T05:57:48;6.47;;;2.80;;
26686;SDS011;14298;50.900;4.648;2022-07-29T06:00:19;4.60;;;3.47;;
26686;SDS011;14298;50.900;4.648;2022-07-29T06:02:47;6.63;;;3.57;;
26686;SDS011;14298;50.900;4.648;2022-07-29T06:05:15;6.50;;;3.40;;
26686;SDS011;14298;50.900;4.648;2022-07-29T06:07:44;6.73;;;3.57;;
26686;SDS011;14298;50.900;4.648;2022-07-29T06:10:12;6.73;;;3.63;;
26686;SDS011;14298;50.900;4.648;2022-07-29T06:12:41;5.23;;;3.57;;
26686;SDS011;14298;50.900;4.648;2022-07-29T06:15:09;5.13;;;2.80;;
26686;SDS011;14298;50.900;4.648;2022-07-29T06:17:38;6.10;;;3.23;;
26686;SDS011;14298;50.900;4.648;2022-07-29T06:20:06;4.83;;;3.30;;
26686;SDS011;14298;50.900;4.648;2022-07-29T06:22:35;6.93;;;2.90;;
26686;SDS011;14298;50.900;4.648;2022-07-29T06:25:03;6.47;;;3.10;;
26686;SDS011;14298;50.900;4.648;2022-07-29T06:27:32;3.80;;;3.10;;
26686;SDS011;14298;50.900;4.648;2022-07-29T06:30:01;9.73;;;3.47;;
26686;SDS011;14298;50.900;4.648;2022-07-29T06:32:29;6.43;;;3.10;;
26686;SDS011;14298;50.900;4.648;2022-07-29T06:34:58;5.07;;;2.80;;
26686;SDS011;14298;50.900;4.648;2022-07-29T06:37:26;4.27;;;3.10;;
26686;SDS011;14298;50.900;4.648;2022-07-29T06:39:55;6.73;;;3.20;;
26686;SDS011;14298;50.900;4.648;2022-07-29T06:42:42;6.87;;;3.20;;
26686;SDS011;14298;50.900;4.648;2022-07-29T06:45:11;7.30;;;3.70;;
26686;SDS011;14298;50.900;4.648;2022-07-29T06:47:39;6.87;;;3.80;;
26686;SDS011;14298;50.900;4.648;2022-07-29T06:50:08;5.40;;;3.50;;
26686;SDS011;14298;50.900;4.648;2022-07-29T06:52:38;4.70;;;3.40;;
26686;SDS011;14298;50.900;4.648;2022-07-29T06:55:07;4.60;;;3.27;;
26686;SDS011;14298;50.900;4.648;2022-07-29T06:57:36;4.27;;;3.33;;
26686;SDS011;14298;50.900;4.648;2022-07-29T07:00:05;8.13;;;3.80;;
26686;SDS011;14298;50.900;4.648;2022-07-29T07:02:34;7.27;;;3.30;;
26686;SDS011;14298;50.900;4.648;2022-07-29T07:05:02;4.20;;;3.50;;
26686;SDS011;14298;50.900;4.648;2022-07-29T07:07:31;5.10;;;3.30;;
26686;SDS011;14298;50.900;4.648;2022-07-29T07:10:00;7.37;;;3.60;;
26686;SDS011;14298;50.900;4.648;2022-07-29T07:12:28;6.93;;;3.53;;
26686;SDS011;14298;50.900;4.648;2022-07-29T07:14:57;5.77;;;3.37;;
26686;SDS011;14298;50.900;4.648;2022-07-29T07:17:25;6.43;;;3.70;;
26686;SDS011;14298;50.900;4.648;2022-07-29T07:19:53;3.53;;;3.23;;
26686;SDS011;14298;50.900;4.648;2022-07-29T07:22:21;10.63;;;3.50;;
26686;SDS011;14298;50.900;4.648;2022-07-29T07:24:50;7.97;;;3.70;;
26686;SDS011;14298;50.900;4.648;2022-07-29T07:27:18;4.20;;;3.13;;
26686;SDS011;14298;50.900;4.648;2022-07-29T07:29:46;3.60;;;3.17;;
26686;SDS011;14298;50.900;4.648;2022-07-29T07:32:15;3.77;;;2.83;;
26686;SDS011;14298;50.900;4.648;2022-07-29T07:34:43;3.83;;;2.57;;
26686;SDS011;14298;50.900;4.648;2022-07-29T07:37:11;6.93;;;3.30;;
26686;SDS011;14298;50.900;4.648;2022-07-29T07:39:41;6.23;;;4.10;;
26686;SDS011;14298;50.900;4.648;2022-07-29T07:42:09;10.23;;;3.07;;
26686;SDS011;14298;50.900;4.648;2022-07-29T07:44:39;4.73;;;2.70;;
26686;SDS011;14298;50.900;4.648;2022-07-29T07:47:08;5.50;;;2.83;;
26686;SDS011;14298;50.900;4.648;2022-07-29T07:49:36;6.07;;;2.83;;
26686;SDS011;14298;50.900;4.648;2022-07-29T07:52:05;6.37;;;2.70;;
26686;SDS011;14298;50.900;4.648;2022-07-29T07:54:33;4.00;;;3.03;;
26686;SDS011;14298;50.900;4.648;2022-07-29T07:57:02;5.57;;;3.10;;
26686;SDS011;14298;50.900;4.648;2022-07-29T07:59:30;6.37;;;3.00;;
26686;SDS011;14298;50.900;4.648;2022-07-29T08:01:59;3.20;;;2.90;;
26686;SDS011;14298;50.900;4.648;2022-07-29T08:04:27;3.40;;;2.93;;
26686;SDS011;14298;50.900;4.648;2022-07-29T08:06:56;3.67;;;3.07;;
26686;SDS011;14298;50.900;4.648;2022-07-29T08:09:26;6.43;;;2.70;;
26686;SDS011;14298;50.900;4.648;2022-07-29T08:11:55;5.73;;;2.73;;
26686;SDS011;14298;50.900;4.648;2022-07-29T08:14:25;6.83;;;3.27;;
26686;SDS011;14298;50.900;4.648;2022-07-29T08:16:53;8.07;;;3.07;;
26686;SDS011;14298;50.900;4.648;2022-07-29T08:19:22;3.07;;;2.43;;
26686;SDS011;14298;50.900;4.648;2022-07-29T08:21:50;3.47;;;2.80;;
26686;SDS011;14298;50.900;4.648;2022-07-29T08:24:20;6.20;;;2.93;;
26686;SDS011;14298;50.900;4.648;2022-07-29T08:27:07;6.00;;;2.63;;
26686;SDS011;14298;50.900;4.648;2022-07-29T08:29:36;5.90;;;2.60;;
26686;SDS011;14298;50.900;4.648;2022-07-29T08:32:05;5.87;;;3.00;;
26686;SDS011;14298;50.900;4.648;2022-07-29T08:34:33;7.10;;;3.03;;
26686;SDS011;14298;50.900;4.648;2022-07-29T08:37:02;5.08;;;2.45;;
26686;SDS011;14298;50.900;4.648;2022-07-29T08:39:30;4.05;;;2.67;;
26686;SDS011;14298;50.900;4.648;2022-07-29T08:41:59;4.87;;;2.90;;
26686;SDS011;14298;50.900;4.648;2022-07-29T08:44:27;6.00;;;3.05;;
26686;SDS011;14298;50.900;4.648;2022-07-29T08:46:56;12.20;;;2.72;;
26686;SDS011;14298;50.900;4.648;2022-07-29T08:49:24;8.83;;;2.90;;
26686;SDS011;14298;50.900;4.648;2022-07-29T08:51:52;5.03;;;2.52;;
26686;SDS011;14298;50.900;4.648;2022-07-29T08:54:21;5.30;;;2.27;;
26686;SDS011;14298;50.900;4.648;2022-07-29T08:56:51;5.00;;;2.30;;
26686;SDS011;14298;50.900;4.648;2022-07-29T08:59:20;6.50;;;2.50;;
26686;SDS011;14298;50.900;4.648;2022-07-29T09:01:50;6.58;;;2.30;;
26686;SDS011;14298;50.900;4.648;2022-07-29T09:04:20;5.00;;;2.33;;
26686;SDS011;14298;50.900;4.648;2022-07-29T09:06:51;5.10;;;2.10;;
26686;SDS011;14298;50.900;4.648;2022-07-29T09:09:21;7.00;;;2.15;;
26686;SDS011;14298;50.900;4.648;2022-07-29T09:11:50;2.70;;;1.90;;
26686;SDS011;14298;50.900;4.648;2022-07-29T09:14:19;2.58;;;1.62;;
26686;SDS011;14298;50.900;4.648;2022-07-29T09:16:49;2.75;;;1.95;;
26686;SDS011;14298;50.900;4.648;2022-07-29T09:19:20;4.05;;;1.55;;
26686;SDS011;14298;50.900;4.648;2022-07-29T09:21:50;3.45;;;1.50;;
26686;SDS011;14298;50.900;4.648;2022-07-29T09:24:25;3.25;;;1.90;;
26686;SDS011;14298;50.900;4.648;2022-07-29T09:27:10;3.87;;;2.10;;
26686;SDS011;14298;50.900;4.648;2022-07-29T09:29:40;4.70;;;1.70;;
26686;SDS011;14298;50.900;4.648;2022-07-29T09:32:09;2.45;;;1.62;;
26686;SDS011;14298;50.900;4.648;2022-07-29T09:34:38;2.47;;;1.82;;
26686;SDS011;14298;50.900;4.648;2022-07-29T09:37:06;4.12;;;1.60;;
26686;SDS011;14298;50.900;4.648;2022-07-29T09:39:36;2.98;;;1.35;;
26686;SDS011;14298;50.900;4.648;2022-07-29T09:42:08;5.00;;;1.98;;
26686;SDS011;14298;50.900;4.648;2022-07-29T09:44:41;3.08;;;1.90;;
26686;SDS011;14298;50.900;4.648;2022-07-29T09:47:15;3.72;;;2.17;;
26686;SDS011;14298;50.900;4.648;2022-07-29T09:49:55;7.40;;;2.12;;
26686;SDS011;14298;50.900;4.648;2022-07-29T09:52:26;3.70;;;1.52;;
26686;SDS011;14298;50.900;4.648;2022-07-29T09:55:08;4.45;;;1.75;;
26686;SDS011;14298;50.900;4.648;2022-07-29T09:57:37;4.05;;;1.70;;
26686;SDS011;14298;50.900;4.648;2022-07-29T10:00:10;2.95;;;1.60;;
26686;SDS011;14298;50.900;4.648;2022-07-29T10:02:41;6.05;;;1.77;;
26686;SDS011;14298;50.900;4.648;2022-07-29T10:05:24;3.37;;;1.98;;
26686;SDS011;14298;50.900;4.648;2022-07-29T10:07:57;4.17;;;1.80;;
26686;SDS011;14298;50.900;4.648;2022-07-29T10:10:29;2.80;;;1.90;;
26686;SDS011;14298;50.900;4.648;2022-07-29T10:13:06;2.60;;;1.67;;
26686;SDS011;14298;50.900;4.648;2022-07-29T10:15:37;8.03;;;1.60;;
26686;SDS011;14298;50.900;4.648;2022-07-29T10:18:11;4.08;;;2.10;;
26686;SDS011;14298;50.900;4.648;2022-07-29T10:20:42;3.92;;;1.50;;
26686;SDS011;14298;50.900;4.648;2022-07-29T10:23:11;4.12;;;1.80;;
26686;SDS011;14298;50.900;4.648;2022-07-29T10:25:40;4.23;;;1.93;;
26686;SDS011;14298;50.900;4.648;2022-07-29T10:28:09;3.40;;;1.70;;
26686;SDS011;14298;50.900;4.648;2022-07-29T10:30:37;3.73;;;1.73;;
26686;SDS011;14298;50.900;4.648;2022-07-29T10:35:40;4.40;;;1.57;;
26686;SDS011;14298;50.900;4.648;2022-07-29T10:44:08;3.93;;;1.80;;
26686;SDS011;14298;50.900;4.648;2022-07-29T10:46:38;4.13;;;1.90;;
26686;SDS011;14298;50.900;4.648;2022-07-29T10:49:14;3.73;;;1.80;;
26686;SDS011;14298;50.900;4.648;2022-07-29T10:51:53;5.53;;;1.93;;
26686;SDS011;14298;50.900;4.648;2022-07-29T10:57:23;4.47;;;1.80;;
26686;SDS011;14298;50.900;4.648;2022-07-29T11:02:43;6.37;;;1.70;;
26686;SDS011;14298;50.900;4.648;2022-07-29T11:05:14;3.85;;;2.00;;
26686;SDS011;14298;50.900;4.648;2022-07-29T11:10:38;4.53;;;1.50;;
26686;SDS011;14298;50.900;4.648;2022-07-29T11:13:07;9.90;;;2.10;;
26686;SDS011;14298;50.900;4.648;2022-07-29T11:15:55;5.13;;;1.70;;
26686;SDS011;14298;50.900;4.648;2022-07-29T11:18:25;2.67;;;2.00;;
26686;SDS011;14298;50.900;4.648;2022-07-29T11:20:53;3.73;;;1.83;;
26686;SDS011;14298;50.900;4.648;2022-07-29T11:23:32;2.43;;;1.53;;
26686;SDS011;14298;50.900;4.648;2022-07-29T11:31:40;3.93;;;1.33;;
26686;SDS011;14298;50.900;4.648;2022-07-29T11:34:23;4.43;;;1.80;;
26686;SDS011;14298;50.900;4.648;2022-07-29T11:39:43;3.00;;;1.60;;
26686;SDS011;14298;50.900;4.648;2022-07-29T11:45:03;2.33;;;1.67;;
26686;SDS011;14298;50.900;4.648;2022-07-29T11:47:34;3.07;;;1.50;;
26686;SDS011;14298;50.900;4.648;2022-07-29T11:50:14;5.93;;;1.70;;
26686;SDS011;14298;50.900;4.648;2022-07-29T11:52:39;3.77;;;1.53;;
26686;SDS011;14298;50.900;4.648;2022-07-29T11:55:18;3.40;;;1.30;;
26686;SDS011;14298;50.900;4.648;2022-07-29T11:57:46;2.33;;;1.50;;
26686;SDS011;14298;50.900;4.648;2022-07-29T12:00:26;3.20;;;1.40;;
26686;SDS011;14298;50.900;4.648;2022-07-29T12:02:57;2.10;;;1.53;;
26686;SDS011;14298;50.900;4.648;2022-07-29T12:05:30;4.62;;;1.85;;
26686;SDS011;14298;50.900;4.648;2022-07-29T12:08:16;4.43;;;1.50;;
26686;SDS011;14298;50.900;4.648;2022-07-29T12:10:46;2.73;;;2.10;;
26686;SDS011;14298;50.900;4.648;2022-07-29T12:13:18;3.03;;;1.80;;
26686;SDS011;14298;50.900;4.648;2022-07-29T12:15:59;4.70;;;1.53;;
26686;SDS011;14298;50.900;4.648;2022-07-29T12:18:24;4.87;;;1.67;;
26686;SDS011;14298;50.900;4.648;2022-07-29T12:20:57;4.17;;;1.80;;
26686;SDS011;14298;50.900;4.648;2022-07-29T12:23:29;2.37;;;1.60;;
26686;SDS011;14298;50.900;4.648;2022-07-29T12:25:58;4.47;;;1.55;;
26686;SDS011;14298;50.900;4.648;2022-07-29T12:28:27;7.80;;;2.00;;
26686;SDS011;14298;50.900;4.648;2022-07-29T12:30:56;2.35;;;1.85;;
26686;SDS011;14298;50.900;4.648;2022-07-29T12:33:26;6.08;;;2.05;;
26686;SDS011;14298;50.900;4.648;2022-07-29T12:35:57;5.12;;;1.80;;
26686;SDS011;14298;50.900;4.648;2022-07-29T12:38:28;3.13;;;1.43;;
26686;SDS011;14298;50.900;4.648;2022-07-29T12:40:56;3.27;;;1.50;;
26686;SDS011;14298;50.900;4.648;2022-07-29T12:43:25;5.47;;;1.80;;
26686;SDS011;14298;50.900;4.648;2022-07-29T12:45:54;4.67;;;1.70;;
26686;SDS011;14298;50.900;4.648;2022-07-29T12:48:37;4.35;;;1.60;;
26686;SDS011;14298;50.900;4.648;2022-07-29T12:51:09;4.23;;;1.80;;
26686;SDS011;14298;50.900;4.648;2022-07-29T12:53:40;2.45;;;1.52;;
26686;SDS011;14298;50.900;4.648;2022-07-29T12:56:15;1.98;;;1.60;;
26686;SDS011;14298;50.900;4.648;2022-07-29T12:58:43;7.22;;;1.92;;
26686;SDS011;14298;50.900;4.648;2022-07-29T13:01:12;5.20;;;1.60;;
26686;SDS011;14298;50.900;4.648;2022-07-29T13:06:43;4.08;;;1.40;;
26686;SDS011;14298;50.900;4.648;2022-07-29T13:08:58;2.67;;;1.57;;
26686;SDS011;14298;50.900;4.648;2022-07-29T13:11:31;4.47;;;1.98;;
26686;SDS011;14298;50.900;4.648;2022-07-29T13:14:05;4.40;;;2.03;;
26686;SDS011;14298;50.900;4.648;2022-07-29T13:16:35;5.42;;;1.82;;
26686;SDS011;14298;50.900;4.648;2022-07-29T13:19:10;5.17;;;2.10;;
26686;SDS011;14298;50.900;4.648;2022-07-29T13:21:39;4.53;;;1.90;;
26686;SDS011;14298;50.900;4.648;2022-07-29T13:24:07;4.53;;;1.80;;
26686;SDS011;14298;50.900;4.648;2022-07-29T13:26:39;12.00;;;2.50;;
26686;SDS011;14298;50.900;4.648;2022-07-29T13:29:07;2.20;;;1.50;;
26686;SDS011;14298;50.900;4.648;2022-07-29T13:31:36;6.17;;;1.60;;
26686;SDS011;14298;50.900;4.648;2022-07-29T13:34:04;2.83;;;1.50;;
26686;SDS011;14298;50.900;4.648;2022-07-29T13:36:32;5.85;;;1.98;;
26686;SDS011;14298;50.900;4.648;2022-07-29T13:39:01;3.95;;;1.65;;
26686;SDS011;14298;50.900;4.648;2022-07-29T13:41:29;2.60;;;1.95;;
26686;SDS011;14298;50.900;4.648;2022-07-29T13:43:58;8.45;;;1.87;;
26686;SDS011;14298;50.900;4.648;2022-07-29T13:46:26;6.17;;;2.35;;
26686;SDS011;14298;50.900;4.648;2022-07-29T13:48:54;4.85;;;2.45;;
26686;SDS011;14298;50.900;4.648;2022-07-29T13:51:23;5.80;;;2.35;;
26686;SDS011;14298;50.900;4.648;2022-07-29T13:53:51;3.95;;;2.08;;
26686;SDS011;14298;50.900;4.648;2022-07-29T13:56:19;3.35;;;1.98;;
26686;SDS011;14298;50.900;4.648;2022-07-29T13:58:48;5.00;;;2.27;;
26686;SDS011;14298;50.900;4.648;2022-07-29T14:01:16;2.80;;;1.82;;
26686;SDS011;14298;50.900;4.648;2022-07-29T14:03:44;4.50;;;2.30;;
26686;SDS011;14298;50.900;4.648;2022-07-29T14:06:13;5.60;;;2.30;;
26686;SDS011;14298;50.900;4.648;2022-07-29T14:08:41;7.15;;;2.95;;
26686;SDS011;14298;50.900;4.648;2022-07-29T14:11:09;18.23;;;3.63;;
26686;SDS011;14298;50.900;4.648;2022-07-29T14:13:38;7.80;;;2.30;;
26686;SDS011;14298;50.900;4.648;2022-07-29T14:16:06;4.60;;;2.80;;
26686;SDS011;14298;50.900;4.648;2022-07-29T14:18:35;8.80;;;3.97;;
26686;SDS011;14298;50.900;4.648;2022-07-29T14:21:03;8.17;;;3.00;;
26686;SDS011;14298;50.900;4.648;2022-07-29T14:23:32;4.23;;;2.90;;
26686;SDS011;14298;50.900;4.648;2022-07-29T14:26:00;8.78;;;3.85;;
26686;SDS011;14298;50.900;4.648;2022-07-29T14:28:28;5.17;;;3.40;;
26686;SDS011;14298;50.900;4.648;2022-07-29T14:30:56;10.03;;;3.13;;
26686;SDS011;14298;50.900;4.648;2022-07-29T14:33:25;4.57;;;2.77;;
26686;SDS011;14298;50.900;4.648;2022-07-29T14:35:53;4.17;;;2.55;;
26686;SDS011;14298;50.900;4.648;2022-07-29T14:38:21;6.22;;;2.92;;
26686;SDS011;14298;50.900;4.648;2022-07-29T14:40:50;4.50;;;2.93;;
26686;SDS011;14298;50.900;4.648;2022-07-29T14:43:18;7.72;;;2.52;;
26686;SDS011;14298;50.900;4.648;2022-07-29T14:45:46;7.15;;;2.33;;
26686;SDS011;14298;50.900;4.648;2022-07-29T14:48:15;6.05;;;2.22;;
26686;SDS011;14298;50.900;4.648;2022-07-29T14:50:43;5.83;;;2.67;;
26686;SDS011;14298;50.900;4.648;2022-07-29T14:53:12;4.78;;;2.60;;
26686;SDS011;14298;50.900;4.648;2022-07-29T14:55:40;7.47;;;1.87;;
26686;SDS011;14298;50.900;4.648;2022-07-29T14:58:08;7.05;;;2.22;;
26686;SDS011;14298;50.900;4.648;2022-07-29T15:00:37;3.77;;;2.20;;
26686;SDS011;14298;50.900;4.648;2022-07-29T15:03:05;3.90;;;2.22;;
26686;SDS011;14298;50.900;4.648;2022-07-29T15:05:35;3.90;;;2.10;;
26686;SDS011;14298;50.900;4.648;2022-07-29T15:08:04;9.08;;;2.90;;
26686;SDS011;14298;50.900;4.648;2022-07-29T15:10:34;6.70;;;2.60;;
26686;SDS011;14298;50.900;4.648;2022-07-29T15:13:02;4.53;;;2.58;;
26686;SDS011;14298;50.900;4.648;2022-07-29T15:15:31;8.70;;;2.20;;
26686;SDS011;14298;50.900;4.648;2022-07-29T15:17:59;15.13;;;2.67;;
26686;SDS011;14298;50.900;4.648;2022-07-29T15:20:27;7.50;;;2.50;;
26686;SDS011;14298;50.900;4.648;2022-07-29T15:22:56;2.52;;;2.25;;
26686;SDS011;14298;50.900;4.648;2022-07-29T15:25:24;2.70;;;2.40;;
26686;SDS011;14298;50.900;4.648;2022-07-29T15:27:53;8.87;;;2.63;;
26686;SDS011;14298;50.900;4.648;2022-07-29T15:30:22;6.95;;;2.30;;
26686;SDS011;14298;50.900;4.648;2022-07-29T15:32:50;2.67;;;2.00;;
26686;SDS011;14298;50.900;4.648;2022-07-29T15:35:18;4.60;;;2.00;;
26686;SDS011;14298;50.900;4.648;2022-07-29T15:37:47;6.77;;;1.80;;
26686;SDS011;14298;50.900;4.648;2022-07-29T15:40:15;3.03;;;1.90;;
26686;SDS011;14298;50.900;4.648;2022-07-29T15:42:44;4.10;;;1.80;;
26686;SDS011;14298;50.900;4.648;2022-07-29T15:45:12;3.37;;;2.00;;
26686;SDS011;14298;50.900;4.648;2022-07-29T15:47:40;4.30;;;1.90;;
26686;SDS011;14298;50.900;4.648;2022-07-29T15:50:08;3.85;;;1.80;;